Terminal Aerodrome Forecast
Issued by NWS

Home | Current Version | Previous Version | Text Only | Print | Product List | Glossary On
Versions: 1 2 3 4 5 6 7 8 9 10 11 12 13 14 15
000
FTUS42 KFFC 242300
TAFRYY
TAF
KRYY 242337Z 2500/2524 29010KT P6SM VCSH BKN045
     FM250200 VRB03KT P6SM SCT120
     FM250800 VRB03KT 3SM BR BKN006
     FM251400 28005KT P6SM SCT020
     FM251600 30006KT P6SM SCT040
      AMD NOT SKED 2504/2512=

USA.gov is the U.S. government's official web portal to all federal, state and local government web resources and services.